createdAt,value
2022-12-24T00:00:26.524Z,31.23
2022-12-24T00:02:54.818Z,28.60
2022-12-24T00:05:22.806Z,26.43
2022-12-24T00:07:52.183Z,25.97
2022-12-24T00:10:20.404Z,25.00
2022-12-24T00:12:48.353Z,25.63
2022-12-24T00:15:16.268Z,24.53
2022-12-24T00:17:44.192Z,22.53
2022-12-24T00:20:12.243Z,22.37
2022-12-24T00:22:40.157Z,25.53
2022-12-24T00:25:10.436Z,24.40
2022-12-24T00:27:38.376Z,24.07
2022-12-24T00:30:07.677Z,25.93
2022-12-24T00:32:35.630Z,28.40
2022-12-24T00:35:03.608Z,30.03
2022-12-24T00:37:31.557Z,33.70
2022-12-24T00:39:59.472Z,25.03
2022-12-24T00:42:28.746Z,22.60
2022-12-24T00:44:56.681Z,23.40
2022-12-24T00:47:24.671Z,22.40
2022-12-24T00:49:52.607Z,21.93
2022-12-24T00:52:20.551Z,20.07
2022-12-24T00:54:48.530Z,22.00
2022-12-24T00:57:16.532Z,20.67
2022-12-24T00:59:45.911Z,21.20
2022-12-24T01:02:13.940Z,21.93
2022-12-24T01:04:59.769Z,21.60
2022-12-24T01:07:27.675Z,22.57
2022-12-24T01:09:55.597Z,24.13
2022-12-24T01:12:23.635Z,24.37
2022-12-24T01:14:52.941Z,24.73
2022-12-24T01:17:20.900Z,22.77
2022-12-24T01:19:48.870Z,25.23
2022-12-24T01:22:16.808Z,22.97
2022-12-24T01:24:45.248Z,22.23
2022-12-24T01:27:13.215Z,26.20
2022-12-24T01:29:41.157Z,24.13
2022-12-24T01:32:10.540Z,24.67
2022-12-24T01:34:38.537Z,24.13
2022-12-24T01:37:06.487Z,22.53
2022-12-24T01:39:34.620Z,24.13
2022-12-24T01:42:20.287Z,23.60
2022-12-24T01:44:52.561Z,22.50
2022-12-24T01:47:24.719Z,23.20
2022-12-24T01:49:55.624Z,21.20
2022-12-24T01:52:28.006Z,21.60
2022-12-24T01:54:59.843Z,22.63
2022-12-24T01:57:31.147Z,23.13
2022-12-24T02:00:04.980Z,23.37
2022-12-24T02:02:35.643Z,23.60
2022-12-24T02:05:09.248Z,23.77
2022-12-24T02:07:37.999Z,21.50
2022-12-24T02:10:09.248Z,20.97
2022-12-24T02:12:38.556Z,20.70
2022-12-24T02:15:08.049Z,21.27
2022-12-24T02:17:43.191Z,22.37
2022-12-24T02:20:37.311Z,21.47
2022-12-24T02:23:22.358Z,21.27
2022-12-24T02:26:08.076Z,19.93
2022-12-24T02:29:02.797Z,21.37
2022-12-24T02:31:39.145Z,20.07
2022-12-24T02:34:15.893Z,19.47
2022-12-24T02:36:49.500Z,17.73
2022-12-24T02:39:23.773Z,14.30
2022-12-24T02:42:07.580Z,13.60
2022-12-24T02:44:42.142Z,12.60
2022-12-24T02:47:12.449Z,11.23
2022-12-24T02:49:40.452Z,9.70
2022-12-24T02:52:08.378Z,9.60
2022-12-24T02:54:36.480Z,9.37
2022-12-24T02:57:14.315Z,9.73
2022-12-24T03:00:01.528Z,9.03
2022-12-24T03:02:44.685Z,8.20
2022-12-24T03:05:21.217Z,9.47
2022-12-24T03:07:59.860Z,8.70
2022-12-24T03:10:35.123Z,8.03
2022-12-24T03:13:08.940Z,8.27
2022-12-24T03:15:39.477Z,7.63
2022-12-24T03:18:11.030Z,7.60
2022-12-24T03:20:41.836Z,8.07
2022-12-24T03:23:09.979Z,7.63
2022-12-24T03:25:41.473Z,7.40
2022-12-24T03:28:12.650Z,7.90
2022-12-24T03:30:41.185Z,7.60
2022-12-24T03:33:10.967Z,7.33
2022-12-24T03:35:39.007Z,7.80
2022-12-24T03:38:07.130Z,6.73
2022-12-24T03:40:35.177Z,7.17
2022-12-24T03:43:03.129Z,7.30
2022-12-24T03:45:31.239Z,7.40
2022-12-24T03:47:59.205Z,7.47
2022-12-24T03:50:28.621Z,7.23
2022-12-24T03:52:56.800Z,7.50
2022-12-24T03:55:25.148Z,7.73
2022-12-24T03:57:53.229Z,7.10
2022-12-24T04:00:22.044Z,7.37
2022-12-24T04:02:50.122Z,7.37
2022-12-24T04:05:20.927Z,6.73
2022-12-24T04:07:50.245Z,6.70
2022-12-24T04:10:18.358Z,6.77
2022-12-24T04:12:46.300Z,7.03
2022-12-24T04:15:14.254Z,6.70
2022-12-24T04:17:42.229Z,6.50
2022-12-24T04:20:11.269Z,6.70
2022-12-24T04:22:39.228Z,5.80
2022-12-24T04:25:10.057Z,6.73
2022-12-24T04:27:38.003Z,5.73
2022-12-24T04:30:07.212Z,5.53
2022-12-24T04:32:35.117Z,6.07
2022-12-24T04:35:03.147Z,5.93
2022-12-24T04:37:31.039Z,5.67
2022-12-24T04:39:58.975Z,6.97
2022-12-24T04:42:28.260Z,6.40
2022-12-24T04:44:56.201Z,6.30
2022-12-24T04:47:24.149Z,6.10
2022-12-24T04:49:52.097Z,6.80
2022-12-24T04:52:20.037Z,6.47
2022-12-24T04:54:47.940Z,6.60
2022-12-24T04:57:15.880Z,7.07
2022-12-24T04:59:45.210Z,6.80
2022-12-24T05:02:13.331Z,6.67
2022-12-24T05:04:41.580Z,6.87
2022-12-24T05:07:09.531Z,7.50
2022-12-24T05:09:37.457Z,7.10
2022-12-24T05:12:06.161Z,7.00
2022-12-24T05:14:34.160Z,7.50
2022-12-24T05:17:03.536Z,7.10
2022-12-24T05:19:31.813Z,7.13
2022-12-24T05:22:13.795Z,6.40
2022-12-24T05:24:58.961Z,6.83
2022-12-24T05:27:27.202Z,6.87
2022-12-24T05:29:55.141Z,7.40
2022-12-24T05:32:24.480Z,6.33
2022-12-24T05:34:52.395Z,7.47
2022-12-24T05:37:20.315Z,7.07
2022-12-24T05:39:48.258Z,6.63
2022-12-24T05:42:16.191Z,7.20
2022-12-24T05:44:44.150Z,7.37
2022-12-24T05:47:12.126Z,6.77
2022-12-24T05:49:41.389Z,7.20
2022-12-24T05:52:10.460Z,6.73
2022-12-24T05:54:38.409Z,6.00
2022-12-24T05:57:06.541Z,5.77
2022-12-24T05:59:34.671Z,6.37
2022-12-24T06:02:02.666Z,6.70
2022-12-24T06:04:30.845Z,7.00
2022-12-24T06:07:00.215Z,6.47
2022-12-24T06:09:28.163Z,6.23
2022-12-24T06:11:56.401Z,6.33
2022-12-24T06:14:24.352Z,6.10
2022-12-24T06:16:52.561Z,6.83
2022-12-24T06:19:20.631Z,6.57
2022-12-24T06:21:48.574Z,6.33
2022-12-24T06:24:17.871Z,7.00
2022-12-24T06:26:45.812Z,6.57
2022-12-24T06:29:13.737Z,7.50
2022-12-24T06:31:41.710Z,7.03
2022-12-24T06:34:09.656Z,6.40
2022-12-24T06:36:37.603Z,7.73
2022-12-24T06:39:05.656Z,7.27
2022-12-24T06:41:34.939Z,6.73
2022-12-24T06:44:02.872Z,6.57
2022-12-24T06:46:30.889Z,6.57
2022-12-24T06:48:58.875Z,7.03
2022-12-24T06:51:26.847Z,7.23
2022-12-24T06:53:55.034Z,7.53
2022-12-24T06:56:23.298Z,6.97
2022-12-24T06:58:52.619Z,7.30
2022-12-24T07:01:24.372Z,7.83
2022-12-24T07:03:52.474Z,7.13
2022-12-24T07:06:25.100Z,7.67
2022-12-24T07:08:53.351Z,8.23
2022-12-24T07:11:21.962Z,8.43
2022-12-24T07:13:50.035Z,8.40
2022-12-24T07:16:19.514Z,8.10
2022-12-24T07:18:47.584Z,8.37
2022-12-24T07:21:15.549Z,8.87
2022-12-24T07:23:43.488Z,8.27
2022-12-24T07:26:11.791Z,8.70
2022-12-24T07:28:40.031Z,8.27
2022-12-24T07:31:08.100Z,9.33
2022-12-24T07:33:37.498Z,8.70
2022-12-24T07:36:07.751Z,9.43
2022-12-24T07:38:36.392Z,9.37
2022-12-24T07:41:04.377Z,9.00
2022-12-24T07:43:34.601Z,9.30
2022-12-24T07:46:02.802Z,9.57
2022-12-24T07:48:32.081Z,9.43
2022-12-24T07:51:01.931Z,9.83
2022-12-24T07:53:31.152Z,9.67
2022-12-24T07:55:59.674Z,9.33
2022-12-24T07:58:28.010Z,10.87
2022-12-24T08:01:00.457Z,10.33
2022-12-24T08:03:28.814Z,10.43
2022-12-24T08:05:58.416Z,9.27
2022-12-24T08:08:27.747Z,9.80
2022-12-24T08:10:55.721Z,10.50
2022-12-24T08:13:23.663Z,9.50
2022-12-24T08:15:51.749Z,9.20
2022-12-24T08:18:19.773Z,9.37
2022-12-24T08:20:47.872Z,9.27
2022-12-24T08:23:16.128Z,9.20
2022-12-24T08:25:47.050Z,9.10
2022-12-24T08:28:17.323Z,8.87
2022-12-24T08:30:45.875Z,8.77
2022-12-24T08:33:13.813Z,9.20
2022-12-24T08:35:41.732Z,8.70
2022-12-24T08:38:09.647Z,8.50
2022-12-24T08:40:37.667Z,9.17
2022-12-24T08:43:06.946Z,8.30
2022-12-24T08:45:40.157Z,8.17
2022-12-24T08:48:10.297Z,8.40
2022-12-24T08:50:41.110Z,8.27
2022-12-24T08:53:09.638Z,8.33
2022-12-24T08:55:37.975Z,8.97
2022-12-24T08:58:07.344Z,8.00
2022-12-24T09:00:35.309Z,8.63
2022-12-24T09:03:03.411Z,8.57
2022-12-24T09:05:31.483Z,8.73
2022-12-24T09:07:59.541Z,7.63
2022-12-24T09:10:27.532Z,9.03
2022-12-24T09:12:55.545Z,8.97
2022-12-24T09:15:24.903Z,8.97
2022-12-24T09:17:52.818Z,8.67
2022-12-24T09:20:20.848Z,8.83
2022-12-24T09:22:48.782Z,8.37
2022-12-24T09:25:16.768Z,8.87
2022-12-24T09:27:44.756Z,8.80
2022-12-24T09:30:13.876Z,9.43
2022-12-24T09:32:43.239Z,9.50
2022-12-24T09:35:11.408Z,8.83
2022-12-24T09:37:39.567Z,9.23
2022-12-24T09:40:16.944Z,9.63
2022-12-24T09:42:52.559Z,9.83
2022-12-24T09:45:27.837Z,10.30
2022-12-24T09:48:00.809Z,10.13
2022-12-24T09:50:35.872Z,10.53
2022-12-24T09:53:11.271Z,10.50
2022-12-24T09:55:46.882Z,10.73
2022-12-24T09:58:21.054Z,10.73
2022-12-24T10:00:50.467Z,10.23
2022-12-24T10:03:20.041Z,10.43
2022-12-24T10:05:58.366Z,10.63
2022-12-24T10:08:32.474Z,10.37
2022-12-24T10:11:08.781Z,10.67
2022-12-24T10:13:51.721Z,11.70
2022-12-24T10:16:28.154Z,11.53
2022-12-24T10:19:06.558Z,11.83
2022-12-24T10:21:40.793Z,11.10
2022-12-24T10:24:15.927Z,11.50
2022-12-24T10:26:46.566Z,11.53
2022-12-24T10:29:19.079Z,11.07
2022-12-24T10:31:55.121Z,11.47
2022-12-24T10:34:26.280Z,11.13
2022-12-24T10:36:54.207Z,14.17
2022-12-24T10:39:25.285Z,12.17
2022-12-24T10:41:57.713Z,11.50
2022-12-24T10:44:28.401Z,11.23
2022-12-24T10:46:56.506Z,11.93
2022-12-24T10:49:33.477Z,9.87
2022-12-24T10:52:06.339Z,13.83
2022-12-24T10:54:39.490Z,10.87
2022-12-24T10:57:25.260Z,10.33
2022-12-24T10:59:55.414Z,10.00
2022-12-24T11:02:29.856Z,11.23
2022-12-24T11:05:00.523Z,10.27
2022-12-24T11:07:30.153Z,10.90
2022-12-24T11:09:59.955Z,11.07
2022-12-24T11:12:30.491Z,11.10
2022-12-24T11:15:04.763Z,10.57
2022-12-24T11:17:33.922Z,10.13
2022-12-24T11:20:04.355Z,10.60
2022-12-24T11:22:35.270Z,11.27
2022-12-24T11:25:07.302Z,9.90
2022-12-24T11:27:42.374Z,10.90
2022-12-24T11:30:22.619Z,10.57
2022-12-24T11:32:52.441Z,9.30
2022-12-24T11:35:23.626Z,11.23
2022-12-24T11:38:11.942Z,11.03
2022-12-24T11:40:42.992Z,10.87
2022-12-24T11:43:16.858Z,10.93
2022-12-24T11:45:51.131Z,10.20
2022-12-24T11:48:28.133Z,10.43
2022-12-24T11:51:03.003Z,10.47
2022-12-24T11:53:39.211Z,11.07
2022-12-24T11:56:15.401Z,11.37
2022-12-24T11:58:47.437Z,11.13
2022-12-24T12:01:19.953Z,10.80
2022-12-24T12:03:51.362Z,11.43
2022-12-24T12:06:29.871Z,11.03
2022-12-24T12:09:02.370Z,9.57
2022-12-24T12:11:31.233Z,9.97
2022-12-24T12:14:01.918Z,9.70
2022-12-24T12:17:00.325Z,10.43
2022-12-24T12:19:31.147Z,10.13
2022-12-24T12:22:01.666Z,10.27
2022-12-24T12:24:35.182Z,10.97
2022-12-24T12:27:21.454Z,10.53
2022-12-24T12:29:56.730Z,11.43
2022-12-24T12:32:31.301Z,10.87
2022-12-24T12:35:06.770Z,10.73
2022-12-24T12:37:41.849Z,10.53
2022-12-24T12:40:15.714Z,9.93
2022-12-24T12:42:48.599Z,10.33
2022-12-24T12:45:33.306Z,9.87
2022-12-24T12:48:28.097Z,10.70
2022-12-24T12:51:03.443Z,11.20
2022-12-24T12:53:43.465Z,13.10
2022-12-24T12:56:24.098Z,11.33
2022-12-24T12:58:55.650Z,10.33
2022-12-24T13:01:32.940Z,9.77
2022-12-24T13:04:36.341Z,9.13
2022-12-24T13:07:41.984Z,8.60
2022-12-24T13:10:32.192Z,9.77
2022-12-24T13:13:20.953Z,9.10
2022-12-24T13:16:11.650Z,10.07
2022-12-24T13:18:49.225Z,10.50
2022-12-24T13:21:19.371Z,9.70
2022-12-24T13:23:47.462Z,9.93
2022-12-24T13:26:17.346Z,10.17
2022-12-24T13:28:45.838Z,11.10
2022-12-24T13:31:29.927Z,10.50
2022-12-24T13:34:36.729Z,10.73
2022-12-24T13:37:20.911Z,11.80
2022-12-24T13:40:16.455Z,11.77
2022-12-24T13:43:12.493Z,11.87
2022-12-24T13:45:51.650Z,11.43
2022-12-24T13:48:35.006Z,12.50
2022-12-24T13:51:20.194Z,11.90
2022-12-24T13:53:49.721Z,11.93
2022-12-24T13:56:26.717Z,11.57
2022-12-24T13:59:11.547Z,11.83
2022-12-24T14:01:43.231Z,12.77
2022-12-24T14:04:25.368Z,10.93
2022-12-24T14:06:54.601Z,12.07
2022-12-24T14:09:25.669Z,12.33
2022-12-24T14:12:18.037Z,12.17
2022-12-24T14:14:48.854Z,11.57
2022-12-24T14:17:25.217Z,12.50
2022-12-24T14:19:55.371Z,12.23
2022-12-24T14:22:30.376Z,11.90
2022-12-24T14:25:00.174Z,12.13
2022-12-24T14:27:35.403Z,12.50
2022-12-24T14:30:08.847Z,11.90
2022-12-24T14:32:39.232Z,12.10
2022-12-24T14:35:10.759Z,12.03
2022-12-24T14:37:40.016Z,12.93
2022-12-24T14:40:10.115Z,11.53
2022-12-24T14:42:43.854Z,13.23
2022-12-24T14:45:24.045Z,12.03
2022-12-24T14:48:00.196Z,13.30
2022-12-24T14:50:45.510Z,13.43
2022-12-24T14:53:24.917Z,13.30
2022-12-24T14:55:52.983Z,12.40
2022-12-24T14:58:29.756Z,12.67
2022-12-24T15:01:00.924Z,12.77
2022-12-24T15:03:31.264Z,12.47
2022-12-24T15:06:01.892Z,12.77
2022-12-24T15:08:32.964Z,12.73
2022-12-24T15:11:04.067Z,12.93
2022-12-24T15:13:37.165Z,13.23
2022-12-24T15:16:09.446Z,13.77
2022-12-24T15:18:40.314Z,13.33
2022-12-24T15:21:15.259Z,13.17
2022-12-24T15:23:48.256Z,14.40
2022-12-24T15:26:24.654Z,14.53
2022-12-24T15:29:01.821Z,14.40
2022-12-24T15:31:32.867Z,14.83
2022-12-24T15:34:01.113Z,15.37
2022-12-24T15:36:32.010Z,14.03
2022-12-24T15:39:02.895Z,15.33
2022-12-24T15:41:38.132Z,14.20
2022-12-24T15:44:06.643Z,12.53
2022-12-24T15:46:36.083Z,15.53
2022-12-24T15:49:04.752Z,13.57
2022-12-24T15:51:37.819Z,13.40
2022-12-24T15:54:12.647Z,15.43
2022-12-24T15:56:44.272Z,14.10
2022-12-24T15:59:28.733Z,14.63
2022-12-24T16:01:58.796Z,14.20
2022-12-24T16:04:29.170Z,13.73
2022-12-24T16:06:58.833Z,14.23
2022-12-24T16:09:40.550Z,15.33
2022-12-24T16:12:16.350Z,14.13
2022-12-24T16:14:49.950Z,14.07
2022-12-24T16:17:23.099Z,14.23
2022-12-24T16:19:54.961Z,14.87
2022-12-24T16:22:35.319Z,13.67
2022-12-24T16:25:23.321Z,14.93
2022-12-24T16:27:51.562Z,13.63
2022-12-24T16:30:20.701Z,15.80
2022-12-24T16:32:50.971Z,14.83
2022-12-24T16:35:26.371Z,15.00
2022-12-24T16:37:54.809Z,15.43
2022-12-24T16:40:27.237Z,15.37
2022-12-24T16:43:14.553Z,15.77
2022-12-24T16:45:42.861Z,16.70
2022-12-24T16:48:20.815Z,16.27
2022-12-24T16:50:49.121Z,15.77
2022-12-24T16:53:18.203Z,17.40
2022-12-24T16:55:47.757Z,16.40
2022-12-24T16:58:17.122Z,16.53
2022-12-24T17:00:45.736Z,15.97
2022-12-24T17:03:15.436Z,16.03
2022-12-24T17:05:45.277Z,16.70
2022-12-24T17:08:13.687Z,17.97
2022-12-24T17:10:41.865Z,19.57
2022-12-24T17:13:09.854Z,16.57
2022-12-24T17:15:37.795Z,15.93
2022-12-24T17:18:06.287Z,18.37
2022-12-24T17:20:35.704Z,18.53
2022-12-24T17:23:03.862Z,23.57
2022-12-24T17:25:32.005Z,21.73
2022-12-24T17:27:59.928Z,19.83
2022-12-24T17:30:27.902Z,20.60
2022-12-24T17:32:55.837Z,17.33
2022-12-24T17:35:23.808Z,20.63
2022-12-24T17:37:53.088Z,21.30
2022-12-24T17:40:21.047Z,20.37
2022-12-24T17:42:49.098Z,20.90
2022-12-24T17:45:17.208Z,19.87
2022-12-24T17:47:45.179Z,21.57
2022-12-24T17:50:13.167Z,22.80
2022-12-24T17:52:41.185Z,19.63
2022-12-24T17:55:11.767Z,18.87
2022-12-24T17:57:39.778Z,19.83
2022-12-24T18:00:09.853Z,18.47
2022-12-24T18:02:39.144Z,18.70
2022-12-24T18:05:07.663Z,18.80
2022-12-24T18:07:35.665Z,18.63
2022-12-24T18:10:04.743Z,119.43
2022-12-24T18:12:34.076Z,142.00
2022-12-24T18:15:02.014Z,70.83
2022-12-24T18:17:29.936Z,32.63
2022-12-24T18:19:57.898Z,52.37
2022-12-24T18:22:25.838Z,40.87
2022-12-24T18:24:53.859Z,29.83
2022-12-24T18:27:21.821Z,30.60
2022-12-24T18:29:51.197Z,32.43
2022-12-24T18:32:19.349Z,31.87
2022-12-24T18:34:47.341Z,30.73
2022-12-24T18:37:15.271Z,27.53
2022-12-24T18:39:44.752Z,28.87
2022-12-24T18:42:14.634Z,28.67
2022-12-24T18:44:42.614Z,28.20
2022-12-24T18:47:12.224Z,24.00
2022-12-24T18:49:40.320Z,25.07
2022-12-24T18:52:10.374Z,23.30
2022-12-24T18:54:40.929Z,22.03
2022-12-24T18:57:08.969Z,21.60
2022-12-24T18:59:39.063Z,22.47
2022-12-24T19:02:07.337Z,22.30
2022-12-24T19:04:37.218Z,20.13
2022-12-24T19:07:05.226Z,20.80
2022-12-24T19:09:33.185Z,20.40
2022-12-24T19:12:01.293Z,20.53
2022-12-24T19:14:29.259Z,19.13
2022-12-24T19:16:57.267Z,19.60
2022-12-24T19:19:25.300Z,20.33
2022-12-24T19:21:54.630Z,20.30
2022-12-24T19:24:23.596Z,19.30
2022-12-24T19:26:51.500Z,19.03
2022-12-24T19:29:19.691Z,18.87
2022-12-24T19:31:47.838Z,20.20
2022-12-24T19:34:15.980Z,20.03
2022-12-24T19:36:44.051Z,19.50
2022-12-24T19:39:13.382Z,20.90
2022-12-24T19:41:41.334Z,20.17
2022-12-24T19:44:10.674Z,20.83
2022-12-24T19:46:39.185Z,20.70
2022-12-24T19:49:09.158Z,19.90
2022-12-24T19:51:37.207Z,19.10
2022-12-24T19:54:06.823Z,19.63
2022-12-24T19:56:36.221Z,19.47
2022-12-24T19:59:04.329Z,19.30
2022-12-24T20:01:34.126Z,19.13
2022-12-24T20:04:03.122Z,19.87
2022-12-24T20:06:34.600Z,48.87
2022-12-24T20:09:04.981Z,39.13
2022-12-24T20:11:33.095Z,27.73
2022-12-24T20:14:04.705Z,30.97
2022-12-24T20:16:33.147Z,64.33
2022-12-24T20:19:03.602Z,50.37
2022-12-24T20:21:32.553Z,30.00
2022-12-24T20:24:00.562Z,24.33
2022-12-24T20:26:29.873Z,25.77
2022-12-24T20:28:57.934Z,25.63
2022-12-24T20:31:29.331Z,24.97
2022-12-24T20:33:58.297Z,25.43
2022-12-24T20:36:27.959Z,25.00
2022-12-24T20:38:56.648Z,59.10
2022-12-24T20:41:26.717Z,56.93
2022-12-24T20:43:54.957Z,36.83
2022-12-24T20:46:24.319Z,33.40
2022-12-24T20:48:53.903Z,28.90
2022-12-24T20:51:25.353Z,28.33
2022-12-24T20:53:55.200Z,24.40
2022-12-24T20:56:23.460Z,24.63
2022-12-24T20:58:51.746Z,23.47
2022-12-24T21:01:24.243Z,22.87
2022-12-24T21:03:54.889Z,23.63
2022-12-24T21:06:23.118Z,26.73
2022-12-24T21:08:52.032Z,26.23
2022-12-24T21:11:38.659Z,27.73
2022-12-24T21:14:06.698Z,24.37
2022-12-24T21:16:36.176Z,24.47
2022-12-24T21:19:08.714Z,23.23
2022-12-24T21:21:37.499Z,22.97
2022-12-24T21:24:06.411Z,22.27
2022-12-24T21:26:34.674Z,23.27
2022-12-24T21:29:04.812Z,21.93
2022-12-24T21:31:33.059Z,23.77
2022-12-24T21:34:01.087Z,24.87
2022-12-24T21:36:30.631Z,24.63
2022-12-24T21:38:58.611Z,23.43
2022-12-24T21:41:27.472Z,24.50
2022-12-24T21:43:55.622Z,25.33
2022-12-24T21:46:27.185Z,25.20
2022-12-24T21:49:13.999Z,23.70
2022-12-24T21:51:46.891Z,25.13
2022-12-24T21:54:27.065Z,24.03
2022-12-24T21:57:14.022Z,39.20
2022-12-24T21:59:42.064Z,40.10
2022-12-24T22:02:12.248Z,33.07
2022-12-24T22:04:41.046Z,25.40
2022-12-24T22:07:37.398Z,23.90
2022-12-24T22:10:23.937Z,23.83
2022-12-24T22:12:51.910Z,24.70
2022-12-24T22:15:20.119Z,24.17
2022-12-24T22:17:48.229Z,24.67
2022-12-24T22:20:16.339Z,24.03
2022-12-24T22:22:45.708Z,22.87
2022-12-24T22:25:13.794Z,24.60
2022-12-24T22:27:41.782Z,26.00
2022-12-24T22:30:10.842Z,24.77
2022-12-24T22:32:38.919Z,25.60
2022-12-24T22:35:07.480Z,32.20
2022-12-24T22:37:35.451Z,25.57
2022-12-24T22:40:05.371Z,28.10
2022-12-24T22:42:33.840Z,24.67
2022-12-24T22:45:02.156Z,25.40
2022-12-24T22:47:31.701Z,25.13
2022-12-24T22:50:00.118Z,25.57
2022-12-24T22:52:28.724Z,25.37
2022-12-24T22:54:56.843Z,25.27
2022-12-24T22:57:26.169Z,23.27
2022-12-24T22:59:54.161Z,22.90
2022-12-24T23:02:28.065Z,24.93
2022-12-24T23:04:57.392Z,24.40
2022-12-24T23:07:25.467Z,23.87
2022-12-24T23:09:53.482Z,25.37
2022-12-24T23:12:41.476Z,25.30
2022-12-24T23:15:10.881Z,24.60
2022-12-24T23:17:38.877Z,25.30
2022-12-24T23:20:08.337Z,25.30
2022-12-24T23:22:36.297Z,26.80
2022-12-24T23:25:04.402Z,25.77
2022-12-24T23:27:32.341Z,24.63
2022-12-24T23:30:00.278Z,25.37
2022-12-24T23:32:29.646Z,23.37
2022-12-24T23:34:57.584Z,23.53
2022-12-24T23:37:31.083Z,24.23
2022-12-24T23:40:02.797Z,25.00
2022-12-24T23:42:30.963Z,23.37
2022-12-24T23:44:58.956Z,25.07
2022-12-24T23:47:29.383Z,23.60
2022-12-24T23:49:57.356Z,24.17
2022-12-24T23:52:25.334Z,24.33
2022-12-24T23:54:53.339Z,23.67
2022-12-24T23:57:21.346Z,24.07
2022-12-24T23:59:49.600Z,23.27
